createdAt,value
2019-03-08T00:00:32.014Z,67.86
2019-03-08T00:01:12.510Z,68.24
2019-03-08T00:01:53.098Z,68.63
2019-03-08T00:02:33.722Z,68.63
2019-03-08T00:03:14.158Z,68.82
2019-03-08T00:03:54.572Z,68.72
2019-03-08T00:04:35.629Z,69.01
2019-03-08T00:05:16.006Z,68.91
2019-03-08T00:05:57.410Z,68.34
2019-03-08T00:06:38.035Z,68.24
2019-03-08T00:07:18.382Z,67.96
2019-03-08T00:07:58.854Z,68.53
2019-03-08T00:08:39.353Z,68.63
2019-03-08T00:09:19.689Z,68.72
2019-03-08T00:10:00.918Z,67.86
2019-03-08T00:10:41.330Z,68.05
2019-03-08T00:11:22.816Z,67.86
2019-03-08T00:12:03.103Z,68.34
2019-03-08T00:12:43.499Z,68.72
2019-03-08T00:13:24.012Z,68.82
2019-03-08T00:14:05.314Z,68.63
2019-03-08T00:14:45.719Z,68.53
2019-03-08T00:15:26.218Z,68.72
2019-03-08T00:16:06.641Z,68.53
2019-03-08T00:16:47.885Z,67.96
2019-03-08T00:17:28.432Z,67.96
2019-03-08T00:18:08.889Z,68.24
2019-03-08T00:18:49.354Z,68.91
2019-03-08T00:19:30.707Z,68.63
2019-03-08T00:20:11.105Z,68.91
2019-03-08T00:20:51.511Z,69.1
2019-03-08T00:21:31.883Z,69.01
2019-03-08T00:22:12.323Z,69.1
2019-03-08T00:22:52.761Z,69.04
2019-03-08T00:23:33.131Z,68.57
2019-03-08T00:24:14.362Z,68.57
2019-03-08T00:24:54.788Z,68.66
2019-03-08T00:25:35.276Z,68.57
2019-03-08T00:26:15.707Z,68.76
2019-03-08T00:26:56.150Z,69.14
2019-03-08T00:27:36.615Z,68.95
2019-03-08T00:28:17.151Z,68.57
2019-03-08T00:28:57.777Z,68.38
2019-03-08T00:29:38.357Z,68.09
2019-03-08T00:30:18.832Z,68.57
2019-03-08T00:30:59.260Z,68.18
2019-03-08T00:31:39.780Z,68.28
2019-03-08T00:32:20.163Z,67.33
2019-03-08T00:33:00.674Z,68.44
2019-03-08T00:33:41.149Z,68.72
2019-03-08T00:34:21.619Z,68.44
2019-03-08T00:35:02.646Z,69.1
2019-03-08T00:35:43.225Z,69.2
2019-03-08T00:36:23.604Z,69.29
2019-03-08T00:37:04.125Z,69.39
2019-03-08T00:37:44.683Z,68.95
2019-03-08T00:38:25.306Z,69.14
2019-03-08T00:39:05.592Z,69.23
2019-03-08T00:39:46.828Z,68.95
2019-03-08T00:40:27.203Z,69.1
2019-03-08T00:41:07.601Z,69.58
2019-03-08T00:41:48.680Z,69.58
2019-03-08T00:42:29.128Z,69.39
2019-03-08T00:43:09.775Z,69.68
2019-03-08T00:43:50.245Z,69.58
2019-03-08T00:44:30.870Z,69.58
2019-03-08T00:45:11.313Z,69.29
2019-03-08T00:45:51.805Z,69.58
2019-03-08T00:46:32.758Z,69.68
2019-03-08T00:47:13.426Z,69.68
2019-03-08T00:47:53.849Z,69.87
2019-03-08T00:48:34.231Z,70.44
2019-03-08T00:49:16.403Z,69.77
2019-03-08T00:49:57.656Z,69.39
2019-03-08T00:50:38.132Z,69.43
2019-03-08T00:51:18.562Z,69.77
2019-03-08T00:51:59.182Z,69.58
2019-03-08T00:52:39.577Z,69.68
2019-03-08T00:53:20.975Z,70.25
2019-03-08T00:54:01.404Z,70.53
2019-03-08T00:54:42.843Z,70.53
2019-03-08T00:55:24.152Z,70.53
2019-03-08T00:56:04.642Z,70.06
2019-03-08T00:56:45.125Z,70.72
2019-03-08T00:57:27.169Z,71.01
2019-03-08T00:58:08.484Z,70.82
2019-03-08T00:58:48.906Z,70.72
2019-03-08T00:59:29.462Z,70.82
2019-03-08T01:00:10.105Z,70.53
2019-03-08T01:00:50.848Z,69.58
2019-03-08T01:01:31.152Z,70.44
2019-03-08T01:02:12.258Z,70.34
2019-03-08T01:02:52.796Z,70.72
2019-03-08T01:03:33.700Z,71.3
2019-03-08T01:04:14.870Z,70.53
2019-03-08T01:04:57.446Z,70.82
2019-03-08T01:05:37.836Z,70.72
2019-03-08T01:06:18.321Z,70.72
2019-03-08T01:06:59.332Z,70.34
2019-03-08T01:07:40.504Z,70.63
2019-03-08T01:08:20.945Z,70.82
2019-03-08T01:09:01.388Z,70.72
2019-03-08T01:09:41.850Z,70.92
2019-03-08T01:10:22.277Z,71.11
2019-03-08T01:11:02.887Z,70.72
2019-03-08T01:11:45.207Z,71.2
2019-03-08T01:12:23.620Z,71.3
2019-03-08T01:13:04.075Z,71.87
2019-03-08T01:13:46.002Z,71.58
2019-03-08T01:14:27.080Z,71.48
2019-03-08T01:15:07.665Z,71.87
2019-03-08T01:15:48.078Z,71.77
2019-03-08T01:16:28.573Z,72.25
2019-03-08T01:17:09.072Z,71.87
2019-03-08T01:17:49.450Z,72.06
2019-03-08T01:18:30.798Z,72.06
2019-03-08T01:19:15.583Z,72.25
2019-03-08T01:22:41.851Z,72.06
2019-03-08T01:23:22.090Z,72.34
2019-03-08T01:24:04.274Z,72.34
2019-03-08T01:24:44.769Z,72.25
2019-03-08T01:25:25.169Z,72.92
2019-03-08T01:26:05.400Z,72.97
2019-03-08T01:26:45.752Z,72.88
2019-03-08T01:27:26.174Z,73.55
2019-03-08T01:28:06.567Z,73.55
2019-03-08T01:28:47.009Z,73.45
2019-03-08T01:29:27.345Z,73.17
2019-03-08T01:30:07.745Z,73.17
2019-03-08T01:30:48.092Z,73.65
2019-03-08T01:31:30.513Z,73.65
2019-03-08T01:32:13.736Z,73.45
2019-03-08T01:32:55.036Z,73.17
2019-03-08T01:33:37.357Z,73.21
2019-03-08T01:34:17.943Z,73.58
2019-03-08T01:34:58.341Z,74.06
2019-03-08T01:35:40.680Z,73.58
2019-03-08T01:36:21.152Z,73.39
2019-03-08T01:37:01.502Z,72.82
2019-03-08T01:37:43.704Z,73.49
2019-03-08T01:38:24.115Z,73.39
2019-03-08T01:39:04.524Z,73.49
2019-03-08T01:39:47.944Z,73.49
2019-03-08T01:40:28.273Z,73.21
2019-03-08T01:41:09.289Z,73.39
2019-03-08T01:41:49.695Z,72.82
2019-03-08T01:42:30.065Z,73.3
2019-03-08T01:43:10.560Z,73.01
2019-03-08T01:43:51.407Z,73.39
2019-03-08T01:44:31.744Z,73.87
2019-03-08T01:45:12.091Z,73.49
2019-03-08T01:45:54.421Z,73.58
2019-03-08T01:46:35.008Z,73.49
2019-03-08T01:47:15.661Z,73.21
2019-03-08T01:47:55.769Z,73.49
2019-03-08T01:48:37.843Z,73.3
2019-03-08T01:49:19.694Z,73.39
2019-03-08T01:50:02.217Z,73.68
2019-03-08T01:50:43.137Z,73.77
2019-03-08T01:51:24.473Z,73.58
2019-03-08T01:52:04.919Z,73.49
2019-03-08T01:52:46.203Z,73.77
2019-03-08T01:53:28.294Z,73.01
2019-03-08T01:54:10.745Z,73.77
2019-03-08T01:54:52.709Z,73.49
2019-03-08T01:55:37.961Z,73.21
2019-03-08T01:56:18.435Z,73.77
2019-03-08T01:56:59.807Z,73.58
2019-03-08T01:57:40.186Z,74.25
2019-03-08T01:58:20.575Z,74.54
2019-03-08T01:59:01.171Z,74.06
2019-03-08T01:59:41.432Z,73.96
2019-03-08T02:00:23.708Z,74.63
2019-03-08T02:01:04.966Z,74.54
2019-03-08T02:01:45.559Z,74.44
2019-03-08T02:02:26.294Z,74.63
2019-03-08T02:03:08.291Z,75.3
2019-03-08T02:03:48.742Z,75.2
2019-03-08T02:04:29.066Z,75.2
2019-03-08T02:05:13.228Z,75.11
2019-03-08T02:05:57.271Z,74.82
2019-03-08T02:06:37.759Z,75.2
2019-03-08T02:07:18.118Z,75.2
2019-03-08T02:08:00.356Z,75.59
2019-03-08T02:08:40.955Z,75.11
2019-03-08T02:09:21.335Z,75.11
2019-03-08T02:10:01.720Z,75.3
2019-03-08T02:10:42.063Z,75.68
2019-03-08T02:11:22.566Z,75.11
2019-03-08T02:12:03.783Z,75.11
2019-03-08T02:12:44.233Z,75.49
2019-03-08T02:13:24.743Z,76.16
2019-03-08T02:14:05.205Z,75.49
2019-03-08T02:14:45.625Z,75.78
2019-03-08T02:15:26.168Z,75.4
2019-03-08T02:16:07.468Z,75.4
2019-03-08T02:16:47.925Z,75.49
2019-03-08T02:17:28.256Z,75.11
2019-03-08T02:18:08.719Z,75.2
2019-03-08T02:18:50.775Z,75.4
2019-03-08T02:19:31.137Z,75.74
2019-03-08T02:20:11.818Z,76.79
2019-03-08T02:20:52.347Z,76.59
2019-03-08T02:21:32.554Z,77.07
2019-03-08T02:22:14.792Z,76.73
2019-03-08T02:22:55.262Z,77.17
2019-03-08T02:23:35.590Z,77.07
2019-03-08T02:24:16.950Z,77.55
2019-03-08T02:24:57.213Z,77.83
2019-03-08T02:25:37.684Z,77.17
2019-03-08T02:26:18.003Z,77.83
2019-03-08T02:27:00.239Z,77.93
2019-03-08T02:27:40.668Z,78.22
2019-03-08T02:28:21.038Z,79.64
2019-03-08T02:29:02.327Z,79.36
2019-03-08T02:29:42.717Z,80.02
2019-03-08T02:30:23.150Z,80.5
2019-03-08T02:31:03.481Z,80.41
2019-03-08T02:31:44.096Z,80.41
2019-03-08T02:32:24.594Z,79.64
2019-03-08T02:33:04.918Z,79.55
2019-03-08T02:33:45.290Z,79.55
2019-03-08T02:34:25.762Z,79.83
2019-03-08T02:35:06.147Z,79.74
2019-03-08T02:35:46.635Z,79.74
2019-03-08T02:36:30.898Z,79.93
2019-03-08T02:37:11.265Z,80.69
2019-03-08T02:37:51.611Z,81.46
2019-03-08T02:38:32.017Z,81.26
2019-03-08T02:39:13.220Z,82.69
2019-03-08T02:39:53.822Z,82.5
2019-03-08T02:40:35.905Z,83.26
2019-03-08T02:41:16.690Z,82.69
2019-03-08T02:41:56.922Z,82.5
2019-03-08T02:42:37.311Z,82.79
2019-03-08T02:43:18.636Z,82.79
2019-03-08T02:43:59.011Z,82.31
2019-03-08T02:44:39.430Z,82.6
2019-03-08T02:45:20.742Z,82.31
2019-03-08T02:46:06.115Z,82.6
2019-03-08T02:46:47.914Z,82.98
2019-03-08T02:47:29.168Z,83.36
2019-03-08T02:48:09.574Z,83.45
2019-03-08T02:48:51.994Z,83.26
2019-03-08T02:49:32.648Z,83.36
2019-03-08T02:50:12.987Z,83.74
2019-03-08T02:50:53.404Z,84.03
2019-03-08T02:51:34.759Z,84.31
2019-03-08T02:52:16.802Z,84.69
2019-03-08T02:52:58.841Z,84.6
2019-03-08T02:53:39.236Z,84.22
2019-03-08T02:54:19.859Z,85.27
2019-03-08T02:55:00.352Z,85.17
2019-03-08T02:55:40.765Z,84.88
2019-03-08T02:56:22.073Z,85.36
2019-03-08T02:57:02.488Z,85.46
2019-03-08T02:57:44.516Z,86.69
2019-03-08T02:58:24.962Z,86.75
2019-03-08T02:59:05.341Z,86.84
2019-03-08T02:59:45.811Z,87.32
2019-03-08T03:00:26.235Z,87.41
2019-03-08T03:01:06.659Z,87.93
2019-03-08T03:01:47.180Z,86.79
2019-03-08T03:02:27.593Z,87.65
2019-03-08T03:03:10.852Z,87.36
2019-03-08T03:03:51.311Z,86.51
2019-03-08T03:04:32.638Z,86.32
2019-03-08T03:05:13.010Z,86.55
2019-03-08T03:05:55.025Z,87.32
2019-03-08T03:06:36.309Z,87.79
2019-03-08T03:07:16.785Z,88.37
2019-03-08T03:07:57.089Z,88.18
2019-03-08T03:08:38.410Z,87.79
2019-03-08T03:09:20.809Z,87.51
2019-03-08T03:10:03.179Z,87.51
2019-03-08T03:10:43.891Z,87.03
2019-03-08T03:11:24.070Z,86.84
2019-03-08T03:12:06.304Z,86.94
2019-03-08T03:12:47.748Z,86.84
2019-03-08T03:13:28.037Z,87.03
2019-03-08T03:14:08.571Z,86.46
2019-03-08T03:14:48.883Z,86.55
2019-03-08T03:15:31.092Z,87.23
2019-03-08T03:16:11.493Z,87.7
2019-03-08T03:16:52.820Z,87.89
2019-03-08T03:17:34.997Z,87.13
2019-03-08T03:18:15.384Z,87.23
2019-03-08T03:18:56.708Z,86.65
2019-03-08T03:19:37.085Z,87.41
2019-03-08T03:20:17.602Z,86.46
2019-03-08T03:20:57.980Z,85.99
2019-03-08T03:21:38.379Z,86.65
2019-03-08T03:22:18.729Z,86.36
2019-03-08T03:23:00.067Z,85.74
2019-03-08T03:23:42.345Z,85.55
2019-03-08T03:24:25.470Z,84.6
2019-03-08T03:25:07.641Z,85.17
2019-03-08T03:25:48.633Z,84.69
2019-03-08T03:26:29.169Z,85.08
2019-03-08T03:27:09.466Z,84.5
2019-03-08T03:27:49.936Z,84.69
2019-03-08T03:28:30.323Z,84.69
2019-03-08T03:29:10.685Z,84.6
2019-03-08T03:29:51.063Z,84.79
2019-03-08T03:30:35.808Z,84.5
2019-03-08T03:31:18.851Z,85.08
2019-03-08T03:31:59.201Z,84.88
2019-03-08T03:32:40.514Z,85.08
2019-03-08T03:33:22.523Z,84.31
2019-03-08T03:34:03.809Z,84.12
2019-03-08T03:34:45.764Z,84.12
2019-03-08T03:35:26.473Z,83.26
2019-03-08T03:36:06.649Z,84.22
2019-03-08T03:36:47.135Z,84.03
2019-03-08T03:37:28.468Z,84.03
2019-03-08T03:38:08.906Z,84.22
2019-03-08T03:38:50.314Z,84.22
2019-03-08T03:39:31.163Z,83.26
2019-03-08T03:40:11.344Z,84.22
2019-03-08T03:40:53.400Z,83.65
2019-03-08T03:41:33.705Z,84.03
2019-03-08T03:42:15.046Z,84.46
2019-03-08T03:42:55.741Z,85.03
2019-03-08T03:43:35.908Z,84.56
2019-03-08T03:44:16.203Z,84.65
2019-03-08T03:44:57.017Z,85.6
2019-03-08T03:45:37.476Z,85.99
2019-03-08T03:46:17.930Z,85.99
2019-03-08T03:47:00.400Z,85.99
2019-03-08T03:47:42.465Z,85.89
2019-03-08T03:48:23.039Z,85.99
2019-03-08T03:49:04.677Z,85.89
2019-03-08T03:49:45.137Z,85.99
2019-03-08T03:50:25.550Z,85.8
2019-03-08T03:51:07.015Z,85.8
2019-03-08T03:51:47.621Z,86.08
2019-03-08T03:52:28.041Z,85.6
2019-03-08T03:53:08.443Z,85.51
2019-03-08T03:53:48.834Z,86.55
2019-03-08T03:54:29.354Z,86.75
2019-03-08T03:55:11.596Z,87.79
2019-03-08T03:55:52.150Z,88.65
2019-03-08T03:56:33.029Z,86.94
2019-03-08T03:57:12.921Z,87.7
2019-03-08T03:57:53.457Z,87.98
2019-03-08T03:58:33.837Z,87.79
2019-03-08T03:59:14.259Z,87.7
2019-03-08T03:59:54.612Z,86.94
2019-03-08T04:00:36.992Z,87.23
2019-03-08T04:01:17.398Z,87.79
2019-03-08T04:01:57.896Z,87.79
2019-03-08T04:02:38.389Z,87.51
2019-03-08T04:03:18.600Z,87.51
2019-03-08T04:04:00.900Z,87.98
2019-03-08T04:04:42.507Z,88.46
2019-03-08T04:05:22.885Z,88.27
2019-03-08T04:06:03.335Z,88.56
2019-03-08T04:06:43.672Z,88.65
2019-03-08T04:07:25.836Z,88.65
2019-03-08T04:08:08.017Z,88.75
2019-03-08T04:08:48.684Z,89.22
2019-03-08T04:09:28.972Z,88.65
2019-03-08T04:10:11.025Z,88.65
2019-03-08T04:10:51.438Z,88.65
2019-03-08T04:11:33.619Z,88.46
2019-03-08T04:12:14.134Z,89.41
2019-03-08T04:12:54.501Z,89.79
2019-03-08T04:13:35.176Z,89.79
2019-03-08T04:14:16.324Z,90.27
2019-03-08T04:14:56.775Z,90.36
2019-03-08T04:15:39.932Z,90.65
2019-03-08T04:16:20.468Z,90.56
2019-03-08T04:17:01.506Z,90.46
2019-03-08T04:17:41.921Z,91.79
2019-03-08T04:18:23.971Z,90.56
2019-03-08T04:19:08.292Z,90.36
2019-03-08T04:19:48.667Z,92.36
2019-03-08T04:20:30.962Z,93.13
2019-03-08T04:21:11.851Z,93.13
2019-03-08T04:21:52.284Z,93.32
2019-03-08T04:22:33.018Z,93.7
2019-03-08T04:23:13.687Z,94.74
2019-03-08T04:23:55.935Z,94.74
2019-03-08T04:24:36.335Z,94.56
2019-03-08T04:25:17.610Z,94.84
2019-03-08T04:25:58.059Z,94.08
2019-03-08T04:26:40.447Z,95.12
2019-03-08T04:27:20.916Z,95.22
2019-03-08T05:06:24.405Z,99.99
2019-03-08T05:07:05.466Z,99.99
2019-03-08T05:07:45.968Z,99.99
2019-03-08T05:08:26.657Z,99.99
2019-03-08T05:09:07.257Z,99.99
2019-03-08T05:09:47.645Z,99.99
2019-03-08T05:10:28.105Z,99.99
2019-03-08T05:11:08.685Z,99.99
2019-03-08T05:11:49.288Z,99.99
2019-03-08T05:12:31.038Z,99.99
2019-03-08T05:13:10.563Z,99.99
2019-03-08T05:13:50.977Z,99.99
2019-03-08T05:14:31.394Z,99.99
2019-03-08T05:15:11.881Z,99.99
2019-03-08T05:15:52.334Z,99.99
2019-03-08T05:16:32.827Z,99.99
2019-03-08T05:17:13.215Z,99.99
2019-03-08T05:17:53.578Z,99.99
2019-03-08T05:18:33.987Z,99.99
2019-03-08T05:19:14.361Z,99.99
2019-03-08T05:19:54.831Z,99.99
2019-03-08T05:20:35.239Z,99.99
2019-03-08T05:21:16.520Z,99.99
2019-03-08T05:21:58.911Z,99.99
2019-03-08T05:22:39.332Z,99.99
2019-03-08T05:23:19.815Z,99.99
2019-03-08T05:24:00.313Z,99.99
2019-03-08T05:24:40.693Z,99.99
2019-03-08T05:25:21.328Z,99.99
2019-03-08T05:26:01.667Z,99.99
2019-03-08T05:26:42.953Z,99.99
2019-03-08T05:27:23.430Z,99.99
2019-03-08T05:28:04.880Z,99.99
2019-03-08T05:28:44.508Z,99.99
2019-03-08T05:29:24.945Z,99.99
2019-03-08T05:30:05.402Z,99.99
2019-03-08T05:30:45.780Z,99.99
2019-03-08T05:31:26.660Z,99.99
2019-03-08T05:32:07.212Z,99.99
2019-03-08T05:32:48.139Z,99.99
2019-03-08T05:33:28.604Z,99.99
2019-03-08T05:34:09.013Z,99.99
2019-03-08T05:34:49.478Z,99.99
2019-03-08T05:35:29.924Z,99.99
2019-03-08T05:36:10.264Z,99.99
2019-03-08T05:36:50.986Z,99.99
2019-03-08T05:37:31.239Z,99.99
2019-03-08T05:38:11.728Z,99.99
2019-03-08T05:38:52.280Z,99.99
2019-03-08T05:39:33.307Z,99.99
2019-03-08T05:40:13.402Z,99.99
2019-03-08T05:40:54.195Z,99.99
2019-03-08T05:41:36.515Z,99.99
2019-03-08T05:42:20.955Z,99.99
2019-03-08T05:43:01.553Z,99.99
2019-03-08T05:43:42.004Z,99.99
2019-03-08T05:44:22.737Z,99.99
2019-03-08T05:45:03.240Z,99.99
2019-03-08T05:45:43.589Z,99.99
2019-03-08T05:46:24.255Z,99.99
2019-03-08T05:47:05.171Z,99.99
2019-03-08T05:47:45.085Z,99.99
2019-03-08T05:48:26.420Z,99.99
2019-03-08T05:49:05.869Z,99.99
2019-03-08T05:49:46.321Z,99.99
2019-03-08T05:50:27.425Z,99.99
2019-03-08T05:51:07.928Z,99.99
2019-03-08T05:51:48.604Z,99.99
2019-03-08T05:52:29.299Z,99.99
2019-03-08T05:53:09.657Z,99.99
2019-03-08T05:53:50.060Z,99.99
2019-03-08T05:54:30.497Z,99.99
2019-03-08T05:55:11.093Z,99.99
2019-03-08T05:55:51.995Z,99.99
2019-03-08T05:56:32.543Z,99.99
2019-03-08T05:57:13.011Z,99.99
2019-03-08T05:57:53.405Z,99.99
2019-03-08T05:58:33.817Z,99.99
2019-03-08T05:59:14.847Z,99.99
2019-03-08T05:59:55.417Z,99.99
2019-03-08T06:00:38.170Z,99.99
2019-03-08T06:01:34.217Z,99.99
2019-03-08T06:02:14.586Z,99.99
2019-03-08T06:02:55.192Z,99.99
2019-03-08T06:03:36.262Z,99.99
2019-03-08T06:04:16.691Z,99.99
2019-03-08T06:04:57.093Z,99.99
2019-03-08T06:05:37.616Z,99.99
2019-03-08T06:06:17.965Z,99.99
2019-03-08T06:06:58.366Z,99.99
2019-03-08T06:07:38.765Z,99.99
2019-03-08T06:08:21.492Z,99.99
2019-03-08T06:09:02.112Z,99.99
2019-03-08T06:09:42.553Z,99.99
2019-03-08T06:10:23.457Z,99.99
2019-03-08T06:11:04.279Z,99.99
2019-03-08T06:11:45.047Z,99.99
2019-03-08T06:12:29.128Z,99.99
2019-03-08T06:13:09.826Z,99.99
2019-03-08T06:13:50.471Z,99.99
2019-03-08T06:14:31.039Z,99.99
2019-03-08T06:15:12.917Z,99.99
2019-03-08T06:15:53.932Z,99.99
2019-03-08T06:16:40.424Z,99.99
2019-03-08T06:17:20.901Z,99.99
2019-03-08T06:18:01.413Z,99.99
2019-03-08T06:18:43.244Z,99.99
2019-03-08T06:19:23.620Z,99.99
2019-03-08T06:20:04.685Z,99.99
2019-03-08T06:20:45.124Z,99.99
2019-03-08T06:21:29.366Z,99.99
2019-03-08T06:22:20.363Z,99.99
2019-03-08T06:23:01.972Z,99.99
2019-03-08T06:23:42.438Z,99.99
2019-03-08T06:24:22.814Z,99.99
2019-03-08T06:25:03.446Z,99.99
2019-03-08T06:25:44.076Z,99.99
2019-03-08T06:26:25.020Z,99.99
2019-03-08T06:27:06.684Z,99.99
2019-03-08T06:27:48.699Z,99.99
2019-03-08T06:28:33.513Z,99.99
2019-03-08T06:29:12.579Z,99.99
2019-03-08T06:30:10.983Z,99.99
2019-03-08T06:30:52.921Z,99.99
2019-03-08T06:31:34.381Z,99.99
2019-03-08T06:33:35.245Z,99.99
2019-03-08T06:35:49.077Z,99.99
2019-03-08T06:36:42.340Z,99.99
2019-03-08T06:37:35.718Z,99.99
2019-03-08T06:38:29.603Z,99.99
2019-03-08T06:39:21.956Z,99.99
2019-03-08T06:40:16.283Z,99.99
2019-03-08T06:41:10.832Z,99.99
2019-03-08T06:42:12.370Z,99.99
2019-03-08T06:43:04.615Z,99.99
2019-03-08T06:43:57.708Z,99.99
2019-03-08T06:44:49.954Z,99.99
2019-03-08T06:45:42.857Z,99.99
2019-03-08T06:46:39.672Z,99.99
2019-03-08T06:47:36.950Z,99.99
2019-03-08T06:48:35.893Z,99.99
2019-03-08T06:49:23.630Z,99.99
2019-03-08T06:50:04.322Z,99.99
2019-03-08T06:50:44.705Z,99.99
2019-03-08T06:51:25.408Z,99.99
2019-03-08T06:52:05.890Z,99.99
2019-03-08T06:52:46.336Z,99.99
2019-03-08T06:53:27.096Z,99.99
2019-03-08T06:54:08.265Z,99.99
2019-03-08T06:54:49.037Z,99.99
2019-03-08T06:55:31.188Z,99.99
2019-03-08T06:56:11.887Z,99.99
2019-03-08T06:56:52.538Z,99.99
2019-03-08T06:57:43.097Z,99.99
2019-03-08T06:58:30.251Z,99.99
2019-03-08T06:59:12.314Z,99.99
2019-03-08T06:59:53.393Z,99.99
2019-03-08T07:00:34.565Z,99.99
2019-03-08T07:02:42.809Z,99.99
2019-03-08T07:04:34.941Z,99.99
2019-03-08T07:05:33.051Z,99.99
2019-03-08T07:06:26.045Z,99.99
2019-03-08T07:07:21.252Z,99.99
2019-03-08T07:08:17.561Z,99.99
2019-03-08T07:09:13.090Z,99.99
2019-03-08T07:10:17.437Z,99.99
2019-03-08T07:11:00.014Z,99.99
2019-03-08T07:11:54.323Z,99.99
2019-03-08T07:12:36.196Z,99.99
2019-03-08T07:13:18.603Z,99.99
2019-03-08T07:15:21.905Z,99.98
2019-03-08T07:16:02.577Z,99.99
2019-03-08T07:16:43.960Z,99.41
2019-03-08T07:17:24.413Z,99.99
2019-03-08T07:18:12.426Z,99.99
2019-03-08T07:18:48.971Z,99.99
2019-03-08T07:19:29.415Z,99.55
2019-03-08T07:20:09.890Z,99.65
2019-03-08T07:20:50.355Z,98.65
2019-03-08T07:21:30.812Z,98.5
2019-03-08T07:22:11.527Z,98.79
2019-03-08T07:22:52.525Z,99.46
2019-03-08T07:23:33.103Z,99.99
2019-03-08T07:24:14.875Z,99.89
2019-03-08T07:24:56.581Z,99.99
2019-03-08T07:25:37.138Z,99.69
2019-03-08T07:26:17.583Z,98.46
2019-03-08T07:26:58.068Z,98.55
2019-03-08T07:27:38.627Z,99.03
2019-03-08T07:28:19.306Z,98.27
2019-03-08T07:29:00.369Z,96.75
2019-03-08T07:29:41.673Z,97.6
2019-03-08T07:30:37.975Z,97.99
2019-03-08T07:31:20.186Z,98.36
2019-03-08T07:31:59.170Z,97.6
2019-03-08T07:32:41.515Z,98.27
2019-03-08T07:33:23.654Z,98.08
2019-03-08T07:34:04.151Z,98.18
2019-03-08T07:34:44.750Z,97.51
2019-03-08T07:35:28.098Z,96.75
2019-03-08T07:36:08.264Z,97.79
2019-03-08T07:36:48.668Z,96.84
2019-03-08T07:37:29.251Z,96.65
2019-03-08T07:38:10.458Z,96.65
2019-03-08T07:38:51.207Z,96.65
2019-03-08T07:39:32.475Z,96.36
2019-03-08T07:40:13.042Z,97.51
2019-03-08T07:40:53.653Z,98.27
2019-03-08T07:41:34.159Z,98.08
2019-03-08T07:42:15.899Z,98.55
2019-03-08T07:42:57.774Z,98.74
2019-03-08T07:44:47.334Z,97.51
2019-03-08T07:45:35.058Z,96.55
2019-03-08T07:46:17.995Z,97.41
2019-03-08T07:46:59.204Z,96.8
2019-03-08T07:47:42.804Z,96.7
2019-03-08T07:48:25.454Z,96.98
2019-03-08T07:49:08.043Z,95.75
2019-03-08T07:50:04.975Z,95.08
2019-03-08T07:50:49.664Z,95.17
2019-03-08T07:51:30.059Z,95.17
2019-03-08T07:52:10.538Z,94.98
2019-03-08T07:52:51.378Z,96.7
2019-03-08T07:53:34.572Z,96.8
2019-03-08T07:54:15.147Z,96.03
2019-03-08T07:54:56.890Z,95.27
2019-03-08T07:55:38.349Z,94.98
2019-03-08T07:56:19.032Z,95.27
2019-03-08T07:57:01.003Z,94.98
2019-03-08T07:57:41.847Z,94.6
2019-03-08T07:58:22.859Z,94.41
2019-03-08T07:59:06.092Z,95.17
2019-03-08T07:59:53.538Z,93.74
2019-03-08T08:01:57.214Z,93.12
2019-03-08T08:02:37.948Z,91.31
2019-03-08T08:03:18.388Z,90.64
2019-03-08T08:03:59.137Z,91.22
2019-03-08T08:04:40.351Z,91.22
2019-03-08T08:05:23.049Z,91.6
2019-03-08T08:06:06.096Z,91.31
2019-03-08T08:06:46.789Z,90.74
2019-03-08T08:07:30.011Z,90.84
2019-03-08T08:08:15.242Z,90.64
2019-03-08T08:08:55.892Z,90.55
2019-03-08T08:09:36.335Z,90.45
2019-03-08T08:10:16.754Z,90.93
2019-03-08T08:10:57.138Z,91.03
2019-03-08T08:11:42.187Z,90.26
2019-03-08T08:12:22.557Z,90.64
2019-03-08T08:13:05.202Z,89.79
2019-03-08T08:13:45.693Z,90.26
2019-03-08T08:14:28.414Z,90.74
2019-03-08T08:15:12.466Z,89.79
2019-03-08T08:15:54.975Z,89.6
2019-03-08T08:16:40.284Z,89.98
2019-03-08T08:17:33.637Z,89.5
2019-03-08T08:18:14.001Z,89.89
2019-03-08T08:18:54.494Z,89.45
2019-03-08T08:19:38.714Z,88.5
2019-03-08T08:20:22.520Z,88.69
2019-03-08T08:21:05.561Z,87.83
2019-03-08T08:21:49.568Z,87.64
2019-03-08T08:22:29.996Z,87.83
2019-03-08T08:23:12.246Z,88.59
2019-03-08T08:23:53.573Z,87.35
2019-03-08T08:24:35.979Z,87.74
2019-03-08T08:25:16.952Z,87.93
2019-03-08T08:25:57.536Z,86.02
2019-03-08T08:26:37.953Z,86.69
2019-03-08T08:27:22.363Z,86.59
2019-03-08T08:28:19.041Z,86.06
2019-03-08T08:29:10.136Z,84.82
2019-03-08T08:29:57.545Z,83.48
2019-03-08T08:30:42.716Z,84.25
2019-03-08T08:31:26.415Z,82.82
2019-03-08T08:32:08.555Z,83.2
2019-03-08T08:32:50.949Z,84.16
2019-03-08T08:33:35.381Z,82.53
2019-03-08T08:34:15.894Z,80.81
2019-03-08T08:35:00.498Z,81.29
2019-03-08T08:35:43.412Z,80.81
2019-03-08T08:36:27.328Z,81.58
2019-03-08T08:37:29.253Z,81.38
2019-03-08T08:38:11.453Z,80.57
2019-03-08T08:38:56.031Z,80.85
2019-03-08T08:39:36.328Z,79.43
2019-03-08T08:40:20.514Z,80.66
2019-03-08T08:41:04.505Z,80.33
2019-03-08T08:43:07.819Z,80.95
2019-03-08T08:44:11.463Z,80.38
2019-03-08T08:45:13.676Z,79.9
2019-03-08T08:46:10.303Z,80.62
2019-03-08T08:47:07.140Z,80.76
2019-03-08T08:48:08.246Z,80.66
2019-03-08T08:49:12.052Z,80.66
2019-03-08T08:50:05.959Z,80.85
2019-03-08T08:51:01.258Z,80.57
2019-03-08T08:52:00.467Z,79.61
2019-03-08T08:52:57.433Z,79.57
2019-03-08T08:54:01.041Z,79.96
2019-03-08T08:54:59.391Z,79.86
2019-03-08T08:58:53.034Z,80.72
2019-03-08T08:59:49.419Z,81.38
2019-03-08T09:00:48.398Z,80.72
2019-03-08T09:01:45.415Z,80.53
2019-03-08T09:02:41.513Z,79.57
2019-03-08T09:03:34.124Z,79.86
2019-03-08T09:04:26.830Z,79.57
2019-03-08T09:05:19.655Z,80.15
2019-03-08T09:06:15.153Z,79.1
2019-03-08T09:10:30.065Z,79.86
2019-03-08T09:11:23.507Z,79
2019-03-08T09:12:20.721Z,80.01
2019-03-08T09:13:14.762Z,79.57
2019-03-08T09:14:09.880Z,79
2019-03-08T09:15:06.411Z,79.44
2019-03-08T09:16:05.335Z,79.86
2019-03-08T09:17:04.646Z,79.28
2019-03-08T09:18:14.540Z,79.28
2019-03-08T09:19:12.087Z,79.77
2019-03-08T09:20:04.843Z,79.67
2019-03-08T09:20:56.837Z,79.15
2019-03-08T09:21:56.590Z,79.35
2019-03-08T09:22:49.666Z,80.68
2019-03-08T09:23:44.540Z,78.81
2019-03-08T09:25:49.479Z,78.43
2019-03-08T09:26:43.060Z,78.23
2019-03-08T09:27:35.225Z,77.57
2019-03-08T09:28:30.595Z,77.23
2019-03-08T09:29:24.305Z,75.22
2019-03-08T09:30:20.371Z,73.41
2019-03-08T09:31:19.667Z,72.3
2019-03-08T09:32:14.859Z,69.62
2019-03-08T09:33:10.698Z,69.47
2019-03-08T09:34:11.336Z,68.04
2019-03-08T09:35:05.983Z,66.35
2019-03-08T09:35:59.303Z,65.11
2019-03-08T09:36:53.209Z,65.77
2019-03-08T09:39:47.146Z,63.42
2019-03-08T09:43:13.752Z,60.03
2019-03-08T09:43:58.138Z,59.97
2019-03-08T09:44:42.564Z,59.39
2019-03-08T09:45:24.990Z,58.91
2019-03-08T09:46:08.480Z,56.74
2019-03-08T09:46:52.085Z,56.16
2019-03-08T09:47:33.592Z,55.87
2019-03-08T09:48:13.975Z,55.01
2019-03-08T09:48:54.543Z,54.44
2019-03-08T09:49:36.570Z,53.96
2019-03-08T09:50:17.081Z,53
2019-03-08T09:50:59.347Z,53.96
2019-03-08T09:51:39.767Z,53.86
2019-03-08T09:52:23.001Z,53.48
2019-03-08T09:53:07.027Z,53.86
2019-03-08T09:53:50.307Z,53.19
2019-03-08T09:54:32.497Z,53.12
2019-03-08T09:55:14.809Z,52.55
2019-03-08T09:55:55.241Z,52.36
2019-03-08T09:56:36.634Z,51.2
2019-03-08T09:57:18.810Z,50.43
2019-03-08T09:58:00.787Z,50.05
2019-03-08T09:58:41.377Z,49.19
2019-03-08T09:59:21.782Z,49.96
2019-03-08T10:00:05.025Z,50.92
2019-03-08T10:00:47.933Z,51.01
2019-03-08T10:01:27.930Z,51.4
2019-03-08T10:02:09.952Z,49.55
2019-03-08T10:02:50.669Z,50.34
2019-03-08T10:03:35.598Z,50.63
2019-03-08T10:04:16.650Z,50.34
2019-03-08T10:05:07.147Z,50.63
2019-03-08T10:05:47.614Z,50.15
2019-03-08T10:06:29.814Z,49.86
2019-03-08T10:07:10.332Z,50.34
2019-03-08T10:07:52.196Z,50.43
2019-03-08T10:08:43.961Z,50.43
2019-03-08T10:20:55.998Z,47.71
2019-03-08T10:21:36.429Z,48.38
2019-03-08T10:22:17.888Z,48.16
2019-03-08T10:22:58.464Z,48.83
2019-03-08T10:23:39.016Z,48.35
2019-03-08T10:24:24.120Z,49.67
2019-03-08T10:25:04.503Z,49.57
2019-03-08T10:25:44.920Z,49.55
2019-03-08T10:26:25.323Z,49.65
2019-03-08T10:27:05.747Z,49.07
2019-03-08T10:27:48.371Z,50.12